Time;durP1;ratioP1;P1;durP2;ratioP2;P2;SDS_P1;SDS_P2;PMS_P1;PMS_P2;Temp;Humidity;BMP_temperature;BMP_pressure;BME280_temperature;BME280_humidity;BME280_pressure;Samples;Min_cycle;Max_cycle;Signal;HPM_P1;HPM_P2
2023/06/28 00:01:08;;;;;;;;;;;;;;;14.24;67.01;100495.69;107698;1254;71451;-87
2023/06/28 00:04:04;;;;;;;;;;;;;;;14.19;67.08;100486.83;107841;1254;124171;-91
2023/06/28 00:06:40;;;;;;;;;;;;;;;14.16;67.30;100481.16;107714;1256;61159;-87
2023/06/28 00:09:14;;;;;;;;;;;;;;;14.11;67.33;100485.02;107832;1254;124172;-87
2023/06/28 00:11:52;;;;;;;;;;;;;;;14.07;67.41;100485.36;107779;1255;67065;-86
2023/06/28 00:14:21;;;;;;;;;;;;;;;14.05;67.64;100490.10;107503;1254;72663;-87
2023/06/28 00:16:57;;;;;;;;;;;;;;;14.02;67.78;100491.67;107377;1256;124224;-87
2023/06/28 00:19:29;;;;;;;;;;;;;;;14.00;67.85;100494.48;107595;1254;60407;-87
2023/06/28 00:22:03;;;;;;;;;;;;;;;13.98;68.03;100497.48;107441;1257;124325;-86
2023/06/28 00:24:30;;;;;;;;;;;;;;;13.97;68.21;100497.46;107869;1254;66446;-87
2023/06/28 00:27:06;;;;;;;;;;;;;;;13.96;68.30;100497.63;107555;1253;72776;-87
2023/06/28 00:29:39;;;;;;;;;;;;;;;13.96;68.44;100496.73;107365;1256;61377;-87
2023/06/28 00:32:12;;;;;;;;;;;;;;;13.96;68.58;100498.16;107543;1255;60573;-87
2023/06/28 00:34:41;;;;;;;;;;;;;;;13.97;68.70;100503.81;107463;1256;124894;-87
2023/06/28 00:37:08;;;;;;;;;;;;;;;13.99;68.92;100504.70;107370;1254;66268;-87
2023/06/28 00:39:38;;;;;;;;;;;;;;;14.03;68.95;100505.44;107745;1254;125189;-86
2023/06/28 00:42:05;;;;;;;;;;;;;;;14.07;69.27;100500.69;107698;1254;59861;-87
2023/06/28 00:44:32;;;;;;;;;;;;;;;14.13;69.22;100497.91;107535;1256;61949;-87
2023/06/28 00:47:00;;;;;;;;;;;;;;;14.18;69.24;100492.48;107440;1255;124933;-87
2023/06/28 00:49:31;;;;;;;;;;;;;;;14.25;69.28;100491.64;107281;1254;67136;-87
2023/06/28 00:52:07;;;;;;;;;;;;;;;14.32;69.32;100491.50;107384;1257;124889;-87
2023/06/28 00:54:34;;;;;;;;;;;;;;;14.40;69.34;100494.01;107391;1255;61307;-86
2023/06/28 00:57:10;;;;;;;;;;;;;;;14.47;69.39;100492.29;107411;1260;60548;-87
2023/06/28 00:59:37;;;;;;;;;;;;;;;14.54;69.29;100492.84;107734;1254;72563;-86
2023/06/28 01:02:10;;;;;;;;;;;;;;;14.61;69.29;100494.33;107459;1255;65919;-86
2023/06/28 01:04:48;;;;;;;;;;;;;;;14.67;69.30;100491.34;107308;1257;125654;-87
2023/06/28 01:07:15;;;;;;;;;;;;;;;14.72;69.38;100492.60;107386;1253;61302;-86
2023/06/28 01:09:44;;;;;;;;;;;;;;;14.79;69.35;100487.85;107747;1255;125202;-85
2023/06/28 01:12:11;;;;;;;;;;;;;;;14.87;69.32;100490.20;107958;1256;75151;-86
2023/06/28 01:14:38;;;;;;;;;;;;;;;14.93;69.32;100486.66;107733;1254;65632;-87
2023/06/28 01:17:05;;;;;;;;;;;;;;;14.97;69.18;100488.45;107605;1254;124398;-87
2023/06/28 01:19:33;;;;;;;;;;;;;;;14.98;69.10;100486.15;107708;1254;61308;-86
2023/06/28 01:22:06;;;;;;;;;;;;;;;14.99;69.06;100488.45;107653;1255;124971;-84
2023/06/28 01:24:35;;;;;;;;;;;;;;;14.99;69.04;100486.86;107687;1261;74672;-83
2023/06/28 01:27:11;;;;;;;;;;;;;;;14.99;69.09;100490.04;107680;1260;67566;-84
2023/06/28 01:29:57;;;;;;;;;;;;;;;14.97;69.19;100488.80;107589;1257;71388;-84
2023/06/28 01:32:24;;;;;;;;;;;;;;;14.96;69.29;100488.27;107459;1254;61037;-85
2023/06/28 01:34:51;;;;;;;;;;;;;;;14.94;69.28;100479.95;107427;1255;125170;-86
2023/06/28 01:37:19;;;;;;;;;;;;;;;14.92;69.44;100479.07;107742;1254;75135;-85
2023/06/28 01:39:47;;;;;;;;;;;;;;;14.90;69.46;100481.36;107573;1254;124194;-85
2023/06/28 01:42:14;;;;;;;;;;;;;;;14.88;69.70;100480.47;107466;1254;71388;-86
2023/06/28 01:44:49;;;;;;;;;;;;;;;14.87;69.84;100479.76;107679;1254;59576;-85
2023/06/28 01:47:24;;;;;;;;;;;;;;;14.87;69.99;100479.76;107807;1254;124689;-86
2023/06/28 01:49:52;;;;;;;;;;;;;;;14.90;70.09;100478.02;107634;1255;74789;-86
2023/06/28 01:52:19;;;;;;;;;;;;;;;14.93;70.24;100473.42;107433;1255;124652;-86
2023/06/28 01:54:46;;;;;;;;;;;;;;;14.97;70.28;100471.13;107474;1254;71592;-85
2023/06/28 01:57:29;;;;;;;;;;;;;;;15.02;70.36;100469.02;107433;1257;124285;-87
2023/06/28 02:00:08;;;;;;;;;;;;;;;15.05;70.41;100466.02;107664;1254;61308;-86
2023/06/28 02:02:53;;;;;;;;;;;;;;;15.10;70.44;100464.80;107452;1255;75697;-86
2023/06/28 02:05:21;;;;;;;;;;;;;;;15.14;70.45;100461.27;107458;1254;124200;-86
2023/06/28 02:08:02;;;;;;;;;;;;;;;15.17;70.52;100458.10;107528;1254;73244;-85
2023/06/28 02:10:36;;;;;;;;;;;;;;;15.22;70.56;100461.45;107383;1253;124668;-87
2023/06/28 02:13:09;;;;;;;;;;;;;;;15.25;70.57;100463.75;107024;1263;59475;-86
2023/06/28 02:15:42;;;;;;;;;;;;;;;15.29;70.61;100463.23;107364;1254;125125;-88
2023/06/28 02:18:17;;;;;;;;;;;;;;;15.33;70.56;100461.30;107738;1254;67331;-88
2023/06/28 02:23:40;;;;;;;;;;;;;;;15.42;70.53;100464.48;107299;1256;62123;-86
2023/06/28 02:26:19;;;;;;;;;;;;;;;15.46;70.57;100464.31;107677;1255;60023;-88
2023/06/28 02:28:58;;;;;;;;;;;;;;;15.53;70.55;100466.60;107722;1256;124891;-87
2023/06/28 02:31:32;;;;;;;;;;;;;;;15.60;70.41;100465.19;107639;1257;65578;-85
2023/06/28 02:33:59;;;;;;;;;;;;;;;15.66;70.37;100465.55;107593;1257;125028;-86
2023/06/28 02:36:33;;;;;;;;;;;;;;;15.70;70.22;100460.05;107442;1256;60071;-85
2023/06/28 02:39:24;;;;;;;;;;;;;;;15.76;70.21;100461.68;107164;1258;61199;-86
2023/06/28 02:41:53;;;;;;;;;;;;;;;15.82;70.13;100459.91;107621;1257;74725;-87
2023/06/28 02:44:20;;;;;;;;;;;;;;;15.87;70.03;100461.84;107701;1256;65572;-86
2023/06/28 02:46:50;;;;;;;;;;;;;;;15.91;69.92;100462.20;107418;1257;124924;-86
2023/06/28 02:49:36;;;;;;;;;;;;;;;15.95;69.88;100463.77;107419;1261;61023;-86
2023/06/28 02:52:03;;;;;;;;;;;;;;;16.00;69.85;100459.53;107740;1255;124848;-87
2023/06/28 02:54:30;;;;;;;;;;;;;;;16.04;69.87;100457.39;107832;1257;75059;-87
2023/06/28 02:56:58;;;;;;;;;;;;;;;16.08;69.71;100455.97;107607;1256;66853;-88
2023/06/28 02:59:27;;;;;;;;;;;;;;;16.11;69.72;100454.54;107358;1255;124961;-89
2023/06/28 03:02:04;;;;;;;;;;;;;;;16.14;69.68;100454.17;107520;1256;61337;-89
2023/06/28 03:04:39;;;;;;;;;;;;;;;16.18;69.62;100453.11;107712;1256;125363;-86
2023/06/28 03:07:31;;;;;;;;;;;;;;;16.21;69.52;100450.96;107755;1257;74331;-89
2023/06/28 03:09:59;;;;;;;;;;;;;;;16.24;69.65;100450.61;107771;1256;125447;-87
2023/06/28 03:12:32;;;;;;;;;;;;;;;16.27;69.66;100453.45;107377;1256;72742;-87
2023/06/28 03:15:13;;;;;;;;;;;;;;;16.31;69.53;100458.39;107418;1256;61360;-86
2023/06/28 03:17:41;;;;;;;;;;;;;;;16.35;69.48;100457.48;107429;1255;124190;-85
2023/06/28 03:20:14;;;;;;;;;;;;;;;16.36;69.45;100462.27;107503;1255;75220;-85
2023/06/28 03:22:42;;;;;;;;;;;;;;;16.39;69.50;100457.66;107645;1257;124394;-85
2023/06/28 03:25:11;;;;;;;;;;;;;;;16.40;69.43;100463.30;107643;1260;71418;-84
2023/06/28 03:27:40;;;;;;;;;;;;;;;16.41;69.47;100459.06;107675;1255;124400;-85
2023/06/28 03:30:09;;;;;;;;;;;;;;;16.43;69.48;100458.52;107861;1255;60474;-85
2023/06/28 03:32:36;;;;;;;;;;;;;;;16.45;69.48;100458.16;107592;1254;74598;-85
2023/06/28 03:35:10;;;;;;;;;;;;;;;16.46;69.48;100459.76;107395;1253;124194;-85
2023/06/28 03:37:39;;;;;;;;;;;;;;;16.47;69.48;100455.50;107901;1255;72691;-85
2023/06/28 03:40:08;;;;;;;;;;;;;;;16.49;69.47;100455.13;107713;1255;124300;-87
2023/06/28 03:42:44;;;;;;;;;;;;;;;16.50;69.53;100459.57;107686;1255;60484;-86
2023/06/28 03:45:24;;;;;;;;;;;;;;;16.53;69.51;100460.07;107725;1253;74704;-86
2023/06/28 03:47:59;;;;;;;;;;;;;;;16.56;69.56;100460.77;107663;1253;67183;-86
2023/06/28 03:50:27;;;;;;;;;;;;;;;16.59;69.60;100460.23;107500;1254;71557;-86
2023/06/28 03:53:00;;;;;;;;;;;;;;;16.62;69.61;100463.02;107767;1258;124151;-86
2023/06/28 03:55:29;;;;;;;;;;;;;;;16.65;69.65;100460.38;107753;1256;61315;-86
2023/06/28 03:57:56;;;;;;;;;;;;;;;16.69;69.60;100464.61;107604;1253;124783;-86
2023/06/28 04:00:38;;;;;;;;;;;;;;;16.71;69.55;100465.48;107935;1255;66334;-85
2023/06/28 04:03:13;;;;;;;;;;;;;;;16.73;69.48;100461.23;107922;1254;72934;-85
2023/06/28 04:05:41;;;;;;;;;;;;;;;16.77;69.40;100463.51;107605;1259;124030;-85
2023/06/28 04:08:09;;;;;;;;;;;;;;;16.79;69.46;100464.55;107813;1257;59950;-82
2023/06/28 04:10:39;;;;;;;;;;;;;;;16.82;69.33;100466.87;108032;1253;124604;-82
2023/06/28 04:13:12;;;;;;;;;;;;;;;16.89;69.40;100464.90;107986;1256;67562;-87
2023/06/28 04:15:40;;;;;;;;;;;;;;;16.95;69.28;100465.39;107701;1257;124367;-84
2023/06/28 04:18:09;;;;;;;;;;;;;;;17.01;69.27;100469.62;107670;1254;61230;-87
2023/06/28 04:20:43;;;;;;;;;;;;;;;17.05;69.13;100466.58;107539;1254;60167;-87
2023/06/28 04:23:11;;;;;;;;;;;;;;;17.10;68.96;100472.21;107425;1257;124615;-89
2023/06/28 04:28:39;;;;;;;;;;;;;;;17.18;68.88;100471.83;107636;1257;124500;-85
2023/06/28 04:31:07;;;;;;;;;;;;;;;17.21;68.69;100471.08;107454;1255;62268;-86
2023/06/28 04:33:35;;;;;;;;;;;;;;;17.25;68.78;100476.20;107422;1257;125332;-86
2023/06/28 04:36:02;;;;;;;;;;;;;;;17.30;68.80;100474.38;107423;1255;75219;-87
2023/06/28 04:38:32;;;;;;;;;;;;;;;17.37;68.67;100473.11;107446;1262;67082;-88
2023/06/28 04:41:00;;;;;;;;;;;;;;;17.44;68.70;100475.89;107511;1257;125983;-86
2023/06/28 04:43:28;;;;;;;;;;;;;;;17.54;68.59;100478.11;107760;1256;60884;-88
2023/06/28 04:45:57;;;;;;;;;;;;;;;17.61;68.36;100477.88;107760;1256;125993;-85
2023/06/28 04:48:30;;;;;;;;;;;;;;;17.71;68.38;100475.14;107708;1255;74947;-85
2023/06/28 04:50:58;;;;;;;;;;;;;;;17.84;68.27;100475.21;107642;1254;65533;-85
2023/06/28 04:53:25;;;;;;;;;;;;;;;18.00;68.14;100473.83;107558;1259;125311;-86
2023/06/28 04:55:52;;;;;;;;;;;;;;;18.18;67.86;100474.71;107481;1255;59722;-85
2023/06/28 04:58:22;;;;;;;;;;;;;;;18.37;67.83;100476.64;107415;1260;125139;-84
2023/06/28 05:00:49;;;;;;;;;;;;;;;18.57;67.59;100474.08;107946;1254;74375;-85
2023/06/28 05:03:16;;;;;;;;;;;;;;;18.79;67.41;100468.14;107793;1257;67112;-88
2023/06/28 05:06:10;;;;;;;;;;;;;;;19.08;67.25;100465.96;107384;1260;124686;-89
2023/06/28 05:08:38;;;;;;;;;;;;;;;19.51;66.94;100466.02;107593;1259;61231;-83
2023/06/28 05:11:11;;;;;;;;;;;;;;;19.98;66.45;100467.56;107335;1257;124496;-87
2023/06/28 05:13:45;;;;;;;;;;;;;;;20.35;65.60;100467.74;107403;1256;74683;-84
2023/06/28 05:16:13;;;;;;;;;;;;;;;20.60;64.89;100471.36;107295;1257;124236;-84
2023/06/28 05:18:42;;;;;;;;;;;;;;;20.71;64.11;100473.11;107508;1257;71395;-84
2023/06/28 05:21:09;;;;;;;;;;;;;;;20.77;63.80;100476.37;107829;1256;60498;-83
2023/06/28 05:23:36;;;;;;;;;;;;;;;20.85;63.30;100475.82;107555;1254;125819;-84
2023/06/28 05:26:05;;;;;;;;;;;;;;;20.96;63.12;100477.20;107483;1255;74687;-83
2023/06/28 05:28:32;;;;;;;;;;;;;;;21.06;62.63;100480.90;107396;1254;124429;-83
2023/06/28 05:31:27;;;;;;;;;;;;;;;21.05;61.99;100480.92;107541;1254;72684;-86
2023/06/28 05:34:00;;;;;;;;;;;;;;;20.95;61.84;100481.86;107491;1254;125215;-89
2023/06/28 05:36:31;;;;;;;;;;;;;;;20.96;61.81;100482.91;107567;1254;61231;-86
2023/06/28 05:39:12;;;;;;;;;;;;;;;20.91;61.57;100484.63;107473;1254;74814;-88
2023/06/28 05:41:49;;;;;;;;;;;;;;;20.87;61.44;100484.36;107260;1258;124106;-87
2023/06/28 05:44:20;;;;;;;;;;;;;;;20.85;61.40;100484.05;107343;1254;71397;-87
2023/06/28 05:47:05;;;;;;;;;;;;;;;20.89;61.25;100485.55;107723;1254;124282;-87
2023/06/28 05:49:39;;;;;;;;;;;;;;;20.94;61.16;100485.45;107945;1257;61234;-87
2023/06/28 05:52:15;;;;;;;;;;;;;;;21.04;61.08;100489.16;107463;1254;124806;-86
2023/06/28 05:54:49;;;;;;;;;;;;;;;21.27;61.00;100491.48;107118;1258;67101;-87
2023/06/28 05:57:24;;;;;;;;;;;;;;;21.55;60.67;100487.82;107424;1254;72511;-87
2023/06/28 05:59:54;;;;;;;;;;;;;;;21.80;60.61;100487.73;107376;1256;61273;-87
2023/06/28 06:05:47;;;;;;;;;;;;;;;22.25;59.60;100493.70;107561;1258;124310;-88
2023/06/28 06:08:17;;;;;;;;;;;;;;;22.51;59.51;100497.29;107759;1260;66840;-87
2023/06/28 06:10:48;;;;;;;;;;;;;;;22.76;58.75;100493.91;107584;1259;124039;-87
2023/06/28 06:13:15;;;;;;;;;;;;;;;22.89;58.39;100496.71;107617;1258;61837;-87
2023/06/28 06:15:43;;;;;;;;;;;;;;;22.99;57.99;100497.85;107422;1257;124340;-86
2023/06/28 06:18:10;;;;;;;;;;;;;;;23.00;57.57;100500.70;107200;1254;74680;-86
2023/06/28 06:20:48;;;;;;;;;;;;;;;22.93;57.27;100500.34;107363;1259;65588;-86
2023/06/28 06:23:15;;;;;;;;;;;;;;;22.94;57.19;100503.36;107220;1254;124113;-85
2023/06/28 06:25:44;;;;;;;;;;;;;;;23.16;57.32;100499.88;107269;1254;62175;-86
2023/06/28 06:28:14;;;;;;;;;;;;;;;23.42;56.91;100498.16;107451;1256;124146;-87
2023/06/28 06:30:42;;;;;;;;;;;;;;;23.65;56.59;100497.23;107348;1255;74953;-87
2023/06/28 06:33:11;;;;;;;;;;;;;;;23.87;56.34;100499.04;107106;1255;67052;-86
2023/06/28 06:35:38;;;;;;;;;;;;;;;24.09;55.84;100497.19;107122;1257;124141;-87
2023/06/28 06:38:12;;;;;;;;;;;;;;;24.28;55.45;100496.70;107127;1253;61391;-87
2023/06/28 06:40:48;;;;;;;;;;;;;;;24.33;54.75;100492.59;107336;1255;124100;-86
2023/06/28 06:43:15;;;;;;;;;;;;;;;24.29;54.47;100492.03;107502;1254;75002;-86
2023/06/28 06:45:42;;;;;;;;;;;;;;;24.20;54.19;100495.56;107598;1257;124232;-87
2023/06/28 06:48:09;;;;;;;;;;;;;;;24.16;54.13;100499.11;107269;1257;71387;-87
2023/06/28 06:50:43;;;;;;;;;;;;;;;24.25;54.16;100500.92;107297;1260;61017;-86
2023/06/28 06:53:22;;;;;;;;;;;;;;;24.56;54.23;100503.23;107153;1258;124118;-86
2023/06/28 06:55:59;;;;;;;;;;;;;;;25.01;53.84;100508.54;107496;1259;73160;-87
2023/06/28 06:58:55;;;;;;;;;;;;;;;25.35;52.92;100507.44;107618;1256;124923;-87
2023/06/28 07:01:32;;;;;;;;;;;;;;;25.48;52.15;100502.96;107655;1259;72717;-86
2023/06/28 07:04:07;;;;;;;;;;;;;;;25.50;51.18;100509.53;107696;1254;124429;-87
2023/06/28 07:06:35;;;;;;;;;;;;;;;25.13;50.57;100510.98;107366;1257;59875;-85
2023/06/28 07:09:05;;;;;;;;;;;;;;;24.87;50.73;100513.05;107587;1258;74705;-85
2023/06/28 07:11:38;;;;;;;;;;;;;;;24.73;50.59;100519.85;107515;1254;124451;-86
2023/06/28 07:14:07;;;;;;;;;;;;;;;24.63;50.78;100518.05;107481;1259;72673;-86
2023/06/28 07:16:51;;;;;;;;;;;;;;;24.65;50.56;100518.17;107525;1254;124085;-86
2023/06/28 07:19:21;;;;;;;;;;;;;;;24.73;50.60;100520.04;107241;1260;61403;-86
2023/06/28 07:21:54;;;;;;;;;;;;;;;24.94;50.36;100520.12;107105;1257;124375;-86
2023/06/28 07:24:21;;;;;;;;;;;;;;;25.09;50.07;100521.00;107332;1259;66809;-87
2023/06/28 07:27:19;;;;;;;;;;;;;;;25.30;49.80;100525.95;107531;1258;72495;-86
2023/06/28 07:29:58;;;;;;;;;;;;;;;25.45;49.26;100530.02;107330;1254;124019;-86
2023/06/28 07:32:33;;;;;;;;;;;;;;;25.53;49.10;100529.54;107357;1257;59980;-87
2023/06/28 07:35:08;;;;;;;;;;;;;;;25.69;49.06;100531.37;107351;1261;124168;-86
2023/06/28 07:37:42;;;;;;;;;;;;;;;25.87;48.78;100532.09;107385;1260;65892;-85
2023/06/28 07:40:16;;;;;;;;;;;;;;;25.97;48.16;100534.92;107263;1254;124515;-85
2023/06/28 07:42:43;;;;;;;;;;;;;;;25.96;47.68;100534.04;107331;1259;61483;-86
2023/06/28 07:45:16;;;;;;;;;;;;;;;25.96;47.77;100534.22;107330;1254;60148;-85
2023/06/28 07:47:52;;;;;;;;;;;;;;;25.96;47.55;100540.35;107174;1257;124066;-86
2023/06/28 07:50:31;;;;;;;;;;;;;;;25.93;47.35;100544.42;107375;1258;67040;-85
2023/06/28 07:53:00;;;;;;;;;;;;;;;25.93;46.88;100539.78;107295;1260;124519;-86
2023/06/28 07:55:28;;;;;;;;;;;;;;;26.00;46.84;100543.61;107374;1257;60548;-88
2023/06/28 07:58:03;;;;;;;;;;;;;;;25.94;46.35;100547.42;107317;1254;124735;-86
2023/06/28 08:00:31;;;;;;;;;;;;;;;25.69;46.24;100553.50;107512;1256;72834;-86
2023/06/28 08:03:05;;;;;;;;;;;;;;;25.41;46.22;100551.17;107302;1263;67030;-86
2023/06/28 08:05:44;;;;;;;;;;;;;;;25.25;46.56;100554.88;107246;1259;124834;-87
2023/06/28 08:08:11;;;;;;;;;;;;;;;25.03;46.47;100557.69;107532;1258;62153;-86
2023/06/28 08:10:44;;;;;;;;;;;;;;;24.93;46.84;100556.95;107706;1259;124299;-86
2023/06/28 08:13:11;;;;;;;;;;;;;;;24.93;46.83;100560.73;107611;1257;74663;-85
2023/06/28 08:16:16;;;;;;;;;;;;;;;24.88;46.89;100560.04;107043;1254;124544;-86
2023/06/28 08:22:03;;;;;;;;;;;;;;;24.84;46.89;100571.30;106879;1258;124265;-88
2023/06/28 08:24:35;;;;;;;;;;;;;;;24.87;46.84;100574.40;107200;1254;60313;-86
2023/06/28 08:27:14;;;;;;;;;;;;;;;24.92;46.60;100574.95;107342;1254;72817;-87
2023/06/28 08:29:53;;;;;;;;;;;;;;;24.81;46.33;100576.24;106980;1257;124041;-88
2023/06/28 08:32:28;;;;;;;;;;;;;;;24.72;46.66;100577.86;107015;1260;72894;-86
2023/06/28 08:35:03;;;;;;;;;;;;;;;24.66;46.76;100581.99;107148;1254;124195;-86
2023/06/28 08:37:38;;;;;;;;;;;;;;;24.56;47.10;100590.23;107269;1257;60266;-85
2023/06/28 08:40:11;;;;;;;;;;;;;;;24.27;46.99;100593.20;107171;1254;124344;-85
2023/06/28 08:42:39;;;;;;;;;;;;;;;24.03;47.31;100594.36;107082;1254;67060;-86
2023/06/28 08:45:14;;;;;;;;;;;;;;;23.96;47.66;100595.15;107294;1256;71434;-86
2023/06/28 08:48:03;;;;;;;;;;;;;;;23.84;47.73;100599.66;107329;1256;124202;-86
2023/06/28 08:50:35;;;;;;;;;;;;;;;23.80;47.71;100601.73;107422;1260;61341;-86
2023/06/28 08:53:16;;;;;;;;;;;;;;;23.78;47.85;100601.61;107221;1257;124222;-86
2023/06/28 08:55:45;;;;;;;;;;;;;;;23.94;47.97;100604.53;107329;1254;67224;-86
2023/06/28 08:58:18;;;;;;;;;;;;;;;24.14;47.66;100602.24;107280;1254;124519;-86
2023/06/28 09:00:45;;;;;;;;;;;;;;;24.29;47.31;100597.61;107366;1257;61224;-87
2023/06/28 09:03:14;;;;;;;;;;;;;;;24.39;47.40;100601.93;107487;1254;60319;-86
2023/06/28 09:05:44;;;;;;;;;;;;;;;24.35;47.47;100599.75;107344;1257;124781;-86
2023/06/28 09:08:12;;;;;;;;;;;;;;;24.37;47.86;100599.50;107289;1256;66122;-86
2023/06/28 09:10:45;;;;;;;;;;;;;;;24.47;47.71;100607.04;107266;1257;124368;-85
2023/06/28 09:13:26;;;;;;;;;;;;;;;24.47;47.65;100606.14;107345;1254;60074;-85
2023/06/28 09:15:53;;;;;;;;;;;;;;;24.46;47.68;100605.30;107599;1257;124365;-85
2023/06/28 09:18:36;;;;;;;;;;;;;;;24.38;47.65;100604.48;107722;1256;74460;-86
2023/06/28 09:21:04;;;;;;;;;;;;;;;24.50;47.72;100607.84;107750;1254;67100;-86
2023/06/28 09:23:33;;;;;;;;;;;;;;;24.54;47.57;100610.58;107495;1258;124186;-85
2023/06/28 09:26:02;;;;;;;;;;;;;;;24.50;47.39;100609.99;107607;1257;61212;-85
2023/06/28 09:28:34;;;;;;;;;;;;;;;24.39;47.26;100614.13;107536;1257;124175;-85
2023/06/28 09:31:01;;;;;;;;;;;;;;;24.21;47.04;100615.81;107438;1254;72710;-85
2023/06/28 09:33:35;;;;;;;;;;;;;;;24.04;47.35;100618.17;107504;1260;124241;-85
2023/06/28 09:36:05;;;;;;;;;;;;;;;24.00;47.87;100623.31;107828;1260;73234;-86
2023/06/28 09:38:47;;;;;;;;;;;;;;;23.99;47.88;100629.29;107666;1254;59500;-85
2023/06/28 09:41:16;;;;;;;;;;;;;;;23.97;47.97;100628.11;107834;1254;124120;-86
2023/06/28 09:43:49;;;;;;;;;;;;;;;24.06;48.15;100624.92;107701;1257;75797;-86
2023/06/28 09:46:17;;;;;;;;;;;;;;;24.11;48.11;100629.96;107590;1257;124343;-87
2023/06/28 09:48:48;;;;;;;;;;;;;;;24.13;47.73;100632.77;107572;1254;72683;-86
2023/06/28 09:51:16;;;;;;;;;;;;;;;24.16;47.51;100628.70;107684;1255;60309;-86
2023/06/28 09:54:01;;;;;;;;;;;;;;;24.10;47.36;100631.42;107608;1256;124506;-86
2023/06/28 09:56:34;;;;;;;;;;;;;;;24.02;47.42;100635.44;107448;1257;72748;-86
2023/06/28 09:59:04;;;;;;;;;;;;;;;23.93;47.47;100639.33;107202;1254;125160;-86
2023/06/28 10:01:49;;;;;;;;;;;;;;;23.78;47.63;100642.65;107483;1254;72692;-87
2023/06/28 10:04:36;;;;;;;;;;;;;;;23.40;47.61;100641.81;107159;1257;124310;-85
2023/06/28 10:07:03;;;;;;;;;;;;;;;23.09;47.85;100637.55;107492;1258;61350;-86
2023/06/28 10:09:44;;;;;;;;;;;;;;;22.86;48.34;100643.71;107503;1254;124615;-85
2023/06/28 10:12:16;;;;;;;;;;;;;;;22.65;48.70;100647.85;107395;1258;65813;-85
2023/06/28 10:14:52;;;;;;;;;;;;;;;22.61;48.80;100645.25;107408;1257;72438;-86
2023/06/28 10:17:19;;;;;;;;;;;;;;;22.55;49.06;100649.38;107571;1255;124575;-87
2023/06/28 10:19:59;;;;;;;;;;;;;;;22.56;49.46;100646.14;107583;1256;60538;-87
2023/06/28 10:22:26;;;;;;;;;;;;;;;22.64;49.31;100652.88;107244;1258;124241;-87
2023/06/28 10:24:53;;;;;;;;;;;;;;;22.66;49.07;100650.49;107350;1255;65677;-87
2023/06/28 10:27:24;;;;;;;;;;;;;;;22.69;48.96;100648.98;107306;1254;72742;-86
2023/06/28 10:29:51;;;;;;;;;;;;;;;22.85;48.90;100647.13;107454;1254;124224;-85
2023/06/28 10:32:19;;;;;;;;;;;;;;;22.96;48.71;100649.16;107480;1257;61041;-84
2023/06/28 10:34:55;;;;;;;;;;;;;;;23.01;48.69;100650.80;107304;1254;124567;-88
2023/06/28 10:37:30;;;;;;;;;;;;;;;23.06;48.63;100660.52;107409;1254;66195;-85
2023/06/28 10:39:58;;;;;;;;;;;;;;;23.25;48.77;100658.21;107313;1254;124477;-87
2023/06/28 10:42:45;;;;;;;;;;;;;;;23.52;48.67;100663.15;107408;1257;59462;-85
2023/06/28 10:45:39;;;;;;;;;;;;;;;23.71;48.24;100665.08;107572;1257;61996;-85
2023/06/28 10:48:19;;;;;;;;;;;;;;;23.81;47.48;100666.05;107453;1257;74766;-85
2023/06/28 10:51:01;;;;;;;;;;;;;;;23.88;47.32;100664.77;107510;1254;66773;-85
2023/06/28 10:53:43;;;;;;;;;;;;;;;24.00;47.45;100666.17;107362;1257;124292;-85
2023/06/28 10:56:18;;;;;;;;;;;;;;;24.03;47.11;100674.48;107608;1256;60017;-85
2023/06/28 10:58:57;;;;;;;;;;;;;;;24.02;46.88;100676.14;107691;1257;124696;-86
2023/06/28 11:01:32;;;;;;;;;;;;;;;23.93;46.49;100679.65;107836;1254;73412;-85
2023/06/28 11:04:16;;;;;;;;;;;;;;;23.87;46.61;100682.35;107426;1255;124868;-85
2023/06/28 11:06:49;;;;;;;;;;;;;;;23.94;46.48;100680.34;107476;1254;72582;-86
2023/06/28 11:09:51;;;;;;;;;;;;;;;23.92;46.06;100684.88;107386;1256;59552;-85
2023/06/28 11:12:27;;;;;;;;;;;;;;;23.64;45.79;100691.42;107594;1256;60473;-85
2023/06/28 11:15:17;;;;;;;;;;;;;;;23.42;46.17;100690.66;107296;1257;74777;-85
2023/06/28 11:17:50;;;;;;;;;;;;;;;23.41;46.50;100693.02;107396;1257;124124;-86
2023/06/28 11:20:18;;;;;;;;;;;;;;;23.47;46.56;100694.80;107628;1255;72725;-85
2023/06/28 11:22:52;;;;;;;;;;;;;;;23.64;46.63;100695.75;107458;1254;124107;-85
2023/06/28 11:25:38;;;;;;;;;;;;;;;23.71;46.51;100700.02;107549;1256;60073;-87
2023/06/28 11:28:07;;;;;;;;;;;;;;;23.61;46.33;100706.21;107523;1256;124387;-87
2023/06/28 11:30:47;;;;;;;;;;;;;;;23.47;46.34;100706.45;107671;1256;66527;-87
2023/06/28 11:33:16;;;;;;;;;;;;;;;23.40;46.55;100709.34;107604;1256;71411;-86
2023/06/28 11:35:43;;;;;;;;;;;;;;;23.36;46.72;100709.64;107571;1258;124499;-86
2023/06/28 11:38:26;;;;;;;;;;;;;;;23.32;46.92;100712.61;107636;1257;59579;-86
2023/06/28 11:41:05;;;;;;;;;;;;;;;23.30;46.98;100715.54;107453;1255;124040;-87
2023/06/28 11:43:40;;;;;;;;;;;;;;;23.21;46.64;100719.73;107559;1254;67083;-87
2023/06/28 11:46:26;;;;;;;;;;;;;;;23.02;46.70;100719.34;107535;1254;124273;-86
2023/06/28 11:48:53;;;;;;;;;;;;;;;22.83;46.91;100719.84;107433;1256;61458;-87
2023/06/28 11:51:21;;;;;;;;;;;;;;;22.65;46.97;100724.58;107260;1255;61349;-87
2023/06/28 11:53:50;;;;;;;;;;;;;;;22.41;47.35;100732.14;107171;1257;124425;-85
2023/06/28 11:56:36;;;;;;;;;;;;;;;22.22;47.99;100730.43;107304;1254;65916;-85
2023/06/28 12:02:10;;;;;;;;;;;;;;;21.76;49.42;100741.27;107542;1254;60318;-86
2023/06/28 12:04:46;;;;;;;;;;;;;;;21.66;49.42;100743.80;107449;1257;124173;-86
2023/06/28 12:07:13;;;;;;;;;;;;;;;21.53;49.88;100747.64;107410;1255;74665;-86
2023/06/28 12:09:40;;;;;;;;;;;;;;;21.41;50.36;100740.73;107433;1259;124218;-85
2023/06/28 12:12:19;;;;;;;;;;;;;;;21.42;50.94;100745.34;107562;1254;71121;-86
2023/06/28 12:15:06;;;;;;;;;;;;;;;21.41;50.52;100743.03;107516;1254;60887;-86
2023/06/28 12:17:52;;;;;;;;;;;;;;;21.34;50.89;100740.30;107243;1253;124050;-86
2023/06/28 12:20:21;;;;;;;;;;;;;;;21.38;50.80;100739.52;107024;1257;74840;-85
2023/06/28 12:23:07;;;;;;;;;;;;;;;21.44;50.59;100734.96;106911;1257;124998;-86
2023/06/28 12:25:41;;;;;;;;;;;;;;;21.48;50.87;100736.32;107067;1256;71469;-85
2023/06/28 12:28:12;;;;;;;;;;;;;;;21.54;50.55;100742.27;107137;1255;124444;-86
2023/06/28 12:30:39;;;;;;;;;;;;;;;21.57;50.54;100743.46;107168;1257;61244;-86
2023/06/28 12:33:24;;;;;;;;;;;;;;;21.60;50.62;100745.53;107151;1257;73958;-86
2023/06/28 12:35:55;;;;;;;;;;;;;;;21.58;50.28;100756.12;107174;1259;124007;-85
2023/06/28 12:38:22;;;;;;;;;;;;;;;21.55;50.19;100748.33;107187;1256;71187;-87
2023/06/28 12:41:01;;;;;;;;;;;;;;;21.53;50.26;100760.84;107097;1257;124172;-86
2023/06/28 12:43:53;;;;;;;;;;;;;;;21.46;50.47;100759.75;107249;1256;59836;-87
2023/06/28 12:46:30;;;;;;;;;;;;;;;21.35;50.15;100766.71;107211;1256;124477;-90
2023/06/28 12:49:04;;;;;;;;;;;;;;;21.24;50.49;100761.21;107356;1260;67083;-86
2023/06/28 12:51:37;;;;;;;;;;;;;;;21.21;50.80;100767.51;106964;1256;71726;-86
2023/06/28 12:54:12;;;;;;;;;;;;;;;21.26;51.41;100768.48;107215;1255;59462;-87
2023/06/28 12:56:39;;;;;;;;;;;;;;;21.30;51.63;100774.66;107256;1257;61243;-88
2023/06/28 12:59:08;;;;;;;;;;;;;;;21.27;51.45;100770.08;106997;1257;125338;-92
2023/06/28 13:01:48;;;;;;;;;;;;;;;21.32;51.26;100775.17;107159;1257;66327;-87
2023/06/28 13:04:23;;;;;;;;;;;;;;;21.33;50.74;100775.67;107133;1256;124229;-87
2023/06/28 13:06:50;;;;;;;;;;;;;;;21.32;50.72;100782.30;107125;1256;61128;-87
2023/06/28 13:09:33;;;;;;;;;;;;;;;21.34;50.94;100783.51;107402;1257;59631;-88